createdAt,value
2022-12-17T00:00:01.101Z,31.10
2022-12-17T00:02:46.563Z,31.90
2022-12-17T00:05:32.529Z,27.03
2022-12-17T00:08:18.419Z,33.27
2022-12-17T00:11:03.849Z,33.50
2022-12-17T00:13:50.292Z,31.30
2022-12-17T00:16:35.586Z,31.10
2022-12-17T00:19:20.749Z,30.10
2022-12-17T00:22:06.101Z,31.70
2022-12-17T00:24:51.460Z,36.67
2022-12-17T00:27:45.777Z,32.27
2022-12-17T00:30:32.777Z,31.77
2022-12-17T00:33:18.181Z,38.57
2022-12-17T00:36:09.837Z,33.73
2022-12-17T00:38:55.145Z,31.77
2022-12-17T00:41:41.969Z,29.93
2022-12-17T00:44:27.290Z,33.77
2022-12-17T00:47:13.969Z,33.70
2022-12-17T00:49:59.304Z,31.10
2022-12-17T00:52:44.591Z,34.37
2022-12-17T00:55:30.091Z,26.73
2022-12-17T00:58:16.063Z,25.47
2022-12-17T01:01:01.746Z,27.23
2022-12-17T01:03:48.186Z,27.50
2022-12-17T01:06:33.473Z,25.27
2022-12-17T01:09:18.816Z,32.00
2022-12-17T01:12:04.115Z,28.63
2022-12-17T01:14:49.544Z,31.47
2022-12-17T01:17:35.031Z,29.03
2022-12-17T01:20:27.358Z,30.30
2022-12-17T01:23:12.717Z,28.57
2022-12-17T01:26:06.468Z,28.93
2022-12-17T01:28:51.830Z,26.10
2022-12-17T01:31:36.456Z,29.47
2022-12-17T01:34:21.817Z,32.00
2022-12-17T01:37:08.417Z,31.73
2022-12-17T01:39:53.728Z,25.73
2022-12-17T01:42:39.219Z,23.33
2022-12-17T01:45:26.363Z,27.67
2022-12-17T01:48:14.975Z,26.80
2022-12-17T01:51:02.333Z,28.10
2022-12-17T01:53:52.623Z,24.00
2022-12-17T01:56:38.046Z,26.83
2022-12-17T01:59:24.849Z,31.97
2022-12-17T02:02:10.397Z,25.90
2022-12-17T02:04:55.880Z,31.67
2022-12-17T02:08:01.753Z,28.27
2022-12-17T02:10:52.668Z,29.70
2022-12-17T02:13:45.592Z,23.90
2022-12-17T02:16:39.667Z,24.63
2022-12-17T02:19:32.631Z,30.20
2022-12-17T02:22:24.497Z,26.83
2022-12-17T02:25:13.264Z,26.97
2022-12-17T02:28:14.957Z,26.67
2022-12-17T02:31:00.135Z,25.43
2022-12-17T02:33:45.507Z,28.00
2022-12-17T02:36:31.017Z,32.07
2022-12-17T02:39:18.481Z,25.80
2022-12-17T02:42:02.909Z,28.07
2022-12-17T02:44:50.155Z,29.57
2022-12-17T02:47:36.335Z,27.53
2022-12-17T02:50:21.727Z,29.40
2022-12-17T02:53:07.693Z,26.93
2022-12-17T02:55:54.077Z,29.40
2022-12-17T02:58:40.009Z,27.07
2022-12-17T03:01:32.160Z,32.67
2022-12-17T03:04:17.544Z,27.37
2022-12-17T03:07:03.059Z,28.77
2022-12-17T03:09:48.537Z,26.93
2022-12-17T03:12:33.789Z,30.90
2022-12-17T03:15:19.080Z,26.93
2022-12-17T03:18:01.940Z,26.47
2022-12-17T03:20:47.294Z,23.80
2022-12-17T03:23:32.740Z,29.47
2022-12-17T03:26:19.098Z,28.70
2022-12-17T03:29:04.297Z,30.00
2022-12-17T03:31:49.654Z,27.33
2022-12-17T03:34:36.397Z,27.33
2022-12-17T03:37:19.075Z,25.50
2022-12-17T03:40:04.497Z,28.37
2022-12-17T03:42:49.731Z,26.13
2022-12-17T03:45:35.213Z,26.90
2022-12-17T03:48:25.090Z,26.43
2022-12-17T03:51:12.237Z,29.17
2022-12-17T03:53:57.486Z,32.57
2022-12-17T03:56:43.334Z,30.53
2022-12-17T03:59:29.249Z,24.97
2022-12-17T04:02:14.711Z,30.50
2022-12-17T04:04:59.120Z,24.67
2022-12-17T04:07:45.825Z,29.73
2022-12-17T04:10:31.348Z,29.07
2022-12-17T04:13:16.824Z,28.40
2022-12-17T04:16:02.242Z,26.60
2022-12-17T04:18:47.486Z,29.97
2022-12-17T04:21:32.825Z,29.53
2022-12-17T04:24:19.515Z,29.13
2022-12-17T04:27:04.909Z,29.03
2022-12-17T04:29:50.351Z,27.23
2022-12-17T04:32:41.112Z,27.87
2022-12-17T04:35:27.029Z,26.27
2022-12-17T04:38:12.450Z,29.57
2022-12-17T04:40:55.325Z,27.63
2022-12-17T04:43:40.683Z,31.67
2022-12-17T04:46:26.224Z,27.57
2022-12-17T04:49:11.325Z,29.33
2022-12-17T04:51:56.740Z,32.10
2022-12-17T04:54:42.034Z,27.77
2022-12-17T04:57:43.192Z,25.37
2022-12-17T05:00:29.536Z,25.10
2022-12-17T05:03:14.545Z,31.17
2022-12-17T05:06:00.003Z,26.27
2022-12-17T05:08:45.402Z,29.27
2022-12-17T05:11:30.724Z,32.10
2022-12-17T05:14:17.514Z,33.27
2022-12-17T05:17:02.780Z,25.17
2022-12-17T05:19:49.320Z,31.37
2022-12-17T05:22:34.701Z,28.97
2022-12-17T05:25:20.096Z,29.40
2022-12-17T05:28:05.648Z,28.17
2022-12-17T05:30:52.292Z,30.60
2022-12-17T05:33:37.904Z,28.50
2022-12-17T05:36:29.103Z,31.20
2022-12-17T05:39:13.561Z,29.87
2022-12-17T05:42:04.174Z,32.90
2022-12-17T05:44:49.582Z,32.23
2022-12-17T05:47:36.250Z,31.30
2022-12-17T05:50:21.577Z,27.03
2022-12-17T05:53:07.090Z,26.50
2022-12-17T05:55:52.621Z,28.13
2022-12-17T05:58:37.920Z,30.00
2022-12-17T06:01:24.495Z,27.83
2022-12-17T06:04:10.977Z,26.20
2022-12-17T06:06:56.327Z,30.57
2022-12-17T06:09:41.585Z,27.80
2022-12-17T06:12:35.176Z,25.40
2022-12-17T06:15:20.521Z,29.37
2022-12-17T06:18:16.496Z,27.20
2022-12-17T06:21:03.984Z,29.63
2022-12-17T06:23:49.414Z,30.70
2022-12-17T06:26:34.743Z,28.67
2022-12-17T06:29:20.282Z,30.77
2022-12-17T06:32:05.581Z,28.60
2022-12-17T06:35:02.381Z,28.93
2022-12-17T06:37:48.765Z,25.87
2022-12-17T06:40:34.126Z,32.65
2022-12-17T06:43:19.841Z,29.40
2022-12-17T06:46:05.102Z,27.70
2022-12-17T06:48:50.230Z,27.43
2022-12-17T06:51:35.511Z,29.10
2022-12-17T06:54:22.273Z,26.17
2022-12-17T06:57:07.868Z,32.37
2022-12-17T06:59:53.214Z,28.43
2022-12-17T07:02:38.701Z,27.70
2022-12-17T07:05:24.290Z,29.35
2022-12-17T07:08:15.837Z,25.10
2022-12-17T07:11:02.632Z,24.47
2022-12-17T07:13:48.085Z,24.47
2022-12-17T07:16:33.436Z,24.23
2022-12-17T07:19:21.437Z,24.73
2022-12-17T07:22:10.772Z,22.60
2022-12-17T07:24:56.200Z,25.73
2022-12-17T07:27:42.864Z,25.67
2022-12-17T07:30:28.799Z,29.90
2022-12-17T07:33:17.678Z,26.27
2022-12-17T07:36:03.110Z,26.17
2022-12-17T07:38:48.626Z,29.67
2022-12-17T07:41:33.821Z,22.10
2022-12-17T07:44:20.561Z,24.43
2022-12-17T07:47:05.974Z,27.30
2022-12-17T07:49:51.675Z,27.10
2022-12-17T07:52:37.226Z,23.80
2022-12-17T07:55:22.518Z,26.20
2022-12-17T07:58:16.292Z,24.03
2022-12-17T08:01:02.894Z,25.60
2022-12-17T08:03:48.161Z,30.60
2022-12-17T08:06:33.570Z,35.93
2022-12-17T08:09:19.057Z,33.73
2022-12-17T08:12:00.924Z,31.97
2022-12-17T08:14:46.277Z,34.93
2022-12-17T08:17:33.817Z,31.67
2022-12-17T08:20:19.857Z,35.10
2022-12-17T08:23:05.032Z,31.50
2022-12-17T08:25:50.498Z,30.73
2022-12-17T08:28:50.457Z,28.23
2022-12-17T08:31:36.281Z,26.53
2022-12-17T08:34:23.050Z,30.13
2022-12-17T08:37:08.504Z,34.77
2022-12-17T08:39:53.600Z,33.00
2022-12-17T08:42:39.045Z,37.57
2022-12-17T08:45:25.370Z,39.47
2022-12-17T08:48:10.821Z,37.20
2022-12-17T08:50:57.577Z,42.67
2022-12-17T08:53:43.200Z,41.53
2022-12-17T08:56:28.680Z,45.53
2022-12-17T08:59:14.084Z,53.83
2022-12-17T09:01:59.622Z,42.90
2022-12-17T09:04:45.210Z,38.00
2022-12-17T09:07:31.841Z,32.97
2022-12-17T09:10:17.308Z,32.70
2022-12-17T09:13:04.896Z,32.30
2022-12-17T09:15:50.977Z,32.30
2022-12-17T09:18:37.651Z,28.03
2022-12-17T09:21:23.586Z,33.20
2022-12-17T09:24:10.220Z,29.83
2022-12-17T09:26:55.620Z,32.17
2022-12-17T09:29:40.854Z,33.03
2022-12-17T09:32:26.604Z,28.57
2022-12-17T09:35:14.205Z,28.90
2022-12-17T09:37:59.541Z,27.47
2022-12-17T09:40:46.409Z,28.57
2022-12-17T09:43:39.604Z,27.70
2022-12-17T09:46:27.160Z,29.10
2022-12-17T09:49:19.899Z,26.73
2022-12-17T09:52:05.163Z,28.00
2022-12-17T09:54:56.421Z,26.77
2022-12-17T09:57:47.992Z,26.70
2022-12-17T10:00:35.380Z,29.83
2022-12-17T10:03:21.267Z,25.93
2022-12-17T10:06:06.930Z,25.03
2022-12-17T10:08:53.111Z,25.30
2022-12-17T10:11:44.838Z,30.30
2022-12-17T10:14:35.920Z,27.40
2022-12-17T10:17:21.493Z,33.03
2022-12-17T10:20:08.772Z,31.50
2022-12-17T10:23:01.209Z,28.67
2022-12-17T10:25:46.583Z,26.67
2022-12-17T10:28:33.565Z,29.73
2022-12-17T10:31:21.154Z,28.10
2022-12-17T10:34:06.304Z,23.57
2022-12-17T10:36:51.649Z,24.83
2022-12-17T10:39:39.251Z,26.93
2022-12-17T10:42:38.892Z,24.07
2022-12-17T10:45:41.778Z,25.20
2022-12-17T10:48:39.613Z,24.67
2022-12-17T10:51:34.170Z,23.83
2022-12-17T10:54:27.250Z,25.10
2022-12-17T10:57:14.081Z,26.73
2022-12-17T10:59:59.291Z,25.90
2022-12-17T11:02:45.894Z,24.00
2022-12-17T11:05:42.755Z,24.73
2022-12-17T11:08:29.081Z,21.47
2022-12-17T11:11:14.419Z,25.83
2022-12-17T11:14:02.157Z,27.47
2022-12-17T11:16:49.581Z,24.63
2022-12-17T11:20:01.957Z,28.87
2022-12-17T11:22:53.830Z,27.67
2022-12-17T11:25:45.001Z,27.83
2022-12-17T11:28:34.556Z,24.90
2022-12-17T11:31:32.780Z,26.23
2022-12-17T11:34:22.146Z,26.53
2022-12-17T11:37:13.307Z,27.27
2022-12-17T11:40:04.817Z,25.70
2022-12-17T11:42:54.372Z,26.47
2022-12-17T11:45:47.133Z,24.07
2022-12-17T11:48:36.129Z,25.47
2022-12-17T11:51:25.763Z,24.23
2022-12-17T11:54:18.356Z,23.73
2022-12-17T11:57:11.744Z,23.50
2022-12-17T12:00:15.221Z,22.70
2022-12-17T12:03:07.870Z,25.03
2022-12-17T12:05:59.989Z,22.63
2022-12-17T12:08:46.744Z,26.43
2022-12-17T12:11:40.787Z,23.43
2022-12-17T12:14:34.102Z,25.60
2022-12-17T12:17:38.571Z,24.73
2022-12-17T12:20:30.431Z,26.10
2022-12-17T12:23:22.414Z,22.20
2022-12-17T12:26:14.753Z,27.40
2022-12-17T12:29:04.281Z,22.17
2022-12-17T12:31:54.847Z,23.27
2022-12-17T12:34:43.456Z,25.73
2022-12-17T12:37:32.717Z,25.20
2022-12-17T12:40:21.140Z,24.27
2022-12-17T12:43:09.087Z,23.37
2022-12-17T12:46:03.574Z,20.03
2022-12-17T12:48:58.170Z,24.63
2022-12-17T12:51:45.500Z,24.00
2022-12-17T12:54:42.872Z,24.73
2022-12-17T12:57:45.349Z,23.83
2022-12-17T13:00:56.213Z,23.53
2022-12-17T13:03:46.856Z,22.10
2022-12-17T13:06:41.477Z,22.10
2022-12-17T13:09:21.724Z,22.67
2022-12-17T13:11:50.662Z,23.37
2022-12-17T13:14:21.191Z,25.57
2022-12-17T13:16:53.618Z,27.07
2022-12-17T13:19:34.513Z,23.53
2022-12-17T13:22:28.262Z,25.83
2022-12-17T13:24:57.984Z,21.30
2022-12-17T13:27:32.087Z,23.40
2022-12-17T13:30:00.765Z,24.80
2022-12-17T13:32:30.752Z,24.70
2022-12-17T13:35:10.528Z,26.90
2022-12-17T13:37:44.313Z,21.37
2022-12-17T13:40:24.027Z,23.07
2022-12-17T13:42:52.022Z,24.13
2022-12-17T13:45:23.362Z,23.10
2022-12-17T13:47:55.846Z,22.40
2022-12-17T13:50:33.765Z,21.43
2022-12-17T13:53:11.489Z,20.07
2022-12-17T13:55:39.196Z,20.27
2022-12-17T13:58:06.748Z,23.17
2022-12-17T14:00:34.922Z,27.30
2022-12-17T14:03:11.988Z,21.47
2022-12-17T14:05:42.459Z,25.43
2022-12-17T14:08:16.093Z,22.57
2022-12-17T14:11:14.414Z,26.10
2022-12-17T14:13:41.274Z,26.43
2022-12-17T14:16:09.057Z,23.90
2022-12-17T14:18:37.875Z,25.80
2022-12-17T14:21:06.676Z,28.20
2022-12-17T14:23:35.681Z,28.63
2022-12-17T14:26:03.666Z,25.73
2022-12-17T14:28:32.988Z,32.57
2022-12-17T14:34:07.202Z,26.93
2022-12-17T14:36:35.747Z,29.10
2022-12-17T14:39:11.052Z,28.73
2022-12-17T14:41:57.791Z,24.33
2022-12-17T14:44:28.100Z,26.10
2022-12-17T14:47:07.539Z,31.93
2022-12-17T14:49:35.209Z,28.27
2022-12-17T14:52:13.319Z,26.70
2022-12-17T14:54:47.386Z,28.83
2022-12-17T14:57:22.475Z,28.20
2022-12-17T14:59:52.419Z,26.87
2022-12-17T15:02:26.210Z,26.30
2022-12-17T15:04:55.164Z,25.20
2022-12-17T15:07:25.734Z,26.80
2022-12-17T15:09:55.877Z,29.23
2022-12-17T15:12:24.853Z,29.20
2022-12-17T15:14:52.501Z,33.20
2022-12-17T15:17:20.081Z,31.70
2022-12-17T15:19:51.443Z,26.47
2022-12-17T15:22:23.298Z,32.60
2022-12-17T15:24:50.846Z,32.20
2022-12-17T15:27:19.788Z,31.90
2022-12-17T15:29:47.407Z,32.70
2022-12-17T15:32:19.104Z,39.20
2022-12-17T15:34:46.683Z,44.73
2022-12-17T15:37:14.678Z,52.57
2022-12-17T15:39:42.225Z,46.13
2022-12-17T15:42:27.614Z,53.10
2022-12-17T15:44:56.542Z,53.90
2022-12-17T15:47:24.204Z,50.37
2022-12-17T15:49:51.793Z,46.90
2022-12-17T15:52:20.533Z,41.87
2022-12-17T15:54:49.245Z,43.53
2022-12-17T15:57:18.665Z,44.33
2022-12-17T15:59:46.661Z,35.57
2022-12-17T16:02:15.810Z,37.37
2022-12-17T16:04:43.588Z,44.80
2022-12-17T16:07:11.313Z,39.47
2022-12-17T16:09:38.864Z,39.90
2022-12-17T16:12:07.003Z,44.97
2022-12-17T16:14:34.624Z,43.30
2022-12-17T16:17:02.228Z,44.50
2022-12-17T16:19:31.208Z,42.80
2022-12-17T16:21:58.773Z,36.03
2022-12-17T16:24:26.353Z,40.97
2022-12-17T16:26:54.383Z,36.00
2022-12-17T16:29:23.161Z,32.30
2022-12-17T16:31:50.740Z,36.40
2022-12-17T16:34:18.475Z,38.87
2022-12-17T16:36:47.507Z,35.77
2022-12-17T16:39:17.452Z,41.00
2022-12-17T16:41:45.435Z,37.30
2022-12-17T16:44:13.126Z,44.80
2022-12-17T16:46:42.864Z,43.70
2022-12-17T16:49:12.484Z,39.93
2022-12-17T16:51:41.106Z,40.50
2022-12-17T16:54:13.179Z,39.07
2022-12-17T16:56:40.905Z,42.80
2022-12-17T16:59:09.658Z,40.20
2022-12-17T17:01:38.526Z,38.70
2022-12-17T17:04:07.291Z,40.30
2022-12-17T17:06:39.442Z,33.80
2022-12-17T17:09:07.373Z,37.07
2022-12-17T17:11:36.308Z,37.80
2022-12-17T17:14:04.398Z,37.17
2022-12-17T17:16:34.109Z,36.57
2022-12-17T17:19:02.125Z,38.17
2022-12-17T17:21:31.917Z,60.97
2022-12-17T17:24:01.407Z,51.20
2022-12-17T17:26:30.835Z,48.67
2022-12-17T17:29:00.128Z,35.03
2022-12-17T17:32:01.334Z,35.00
2022-12-17T17:34:16.405Z,34.43
2022-12-17T17:36:44.193Z,39.73
2022-12-17T17:39:12.103Z,40.90
2022-12-17T17:41:39.673Z,58.90
2022-12-17T17:44:10.032Z,45.43
2022-12-17T17:46:38.116Z,43.70
2022-12-17T17:49:07.417Z,48.77
2022-12-17T17:52:08.492Z,49.57
2022-12-17T17:54:25.583Z,51.27
2022-12-17T17:56:53.209Z,55.40
2022-12-17T17:59:27.857Z,52.63
2022-12-17T18:02:01.294Z,49.87
2022-12-17T18:04:29.120Z,47.07
2022-12-17T18:09:44.354Z,35.23
2022-12-17T18:12:25.900Z,30.20
2022-12-17T18:15:13.837Z,39.40
2022-12-17T18:17:42.713Z,50.28
2022-12-17T18:20:11.734Z,35.33
2022-12-17T18:22:39.301Z,40.20
2022-12-17T18:25:07.094Z,32.95
2022-12-17T18:27:34.670Z,34.60
2022-12-17T18:30:03.801Z,33.28
2022-12-17T18:32:31.347Z,35.42
2022-12-17T18:34:58.955Z,26.70
2022-12-17T18:37:26.607Z,29.23
2022-12-17T18:39:54.280Z,46.33
2022-12-17T18:42:39.491Z,45.00
2022-12-17T18:45:16.597Z,40.93
2022-12-17T18:47:44.733Z,43.83
2022-12-17T18:50:13.113Z,52.67
2022-12-17T18:52:40.728Z,51.70
2022-12-17T18:55:08.716Z,65.53
2022-12-17T18:57:36.284Z,58.07
2022-12-17T19:00:04.299Z,44.27
2022-12-17T19:02:33.428Z,46.00
2022-12-17T19:05:01.176Z,41.60
2022-12-17T19:07:28.774Z,45.70
2022-12-17T19:09:56.334Z,46.77
2022-12-17T19:12:23.944Z,47.20
2022-12-17T19:14:51.534Z,42.23
2022-12-17T19:17:19.151Z,41.50
2022-12-17T19:19:48.195Z,46.47
2022-12-17T19:22:16.107Z,41.67
2022-12-17T19:24:43.702Z,47.37
2022-12-17T19:27:11.301Z,40.43
2022-12-17T19:29:38.902Z,41.93
2022-12-17T19:32:06.857Z,44.17
2022-12-17T19:34:35.075Z,44.67
2022-12-17T19:37:04.667Z,37.40
2022-12-17T19:39:32.296Z,40.07
2022-12-17T19:41:59.834Z,55.60
2022-12-17T19:44:27.731Z,59.13
2022-12-17T19:46:56.100Z,65.07
2022-12-17T19:49:23.934Z,72.00
2022-12-17T19:51:51.551Z,64.63
2022-12-17T19:54:20.954Z,72.77
2022-12-17T19:56:48.574Z,67.80
2022-12-17T19:59:16.272Z,58.43
2022-12-17T20:01:45.434Z,55.43
2022-12-17T20:04:14.457Z,49.93
2022-12-17T20:06:42.191Z,47.60
2022-12-17T20:09:09.821Z,57.03
2022-12-17T20:11:39.021Z,46.60
2022-12-17T20:14:09.187Z,45.00
2022-12-17T20:16:38.949Z,50.20
2022-12-17T20:19:08.325Z,43.83
2022-12-17T20:21:36.039Z,38.90
2022-12-17T20:24:03.687Z,44.90
2022-12-17T20:26:31.717Z,43.13
2022-12-17T20:29:01.133Z,45.13
2022-12-17T20:31:28.922Z,39.10
2022-12-17T20:33:56.623Z,35.10
2022-12-17T20:36:24.490Z,37.27
2022-12-17T20:38:52.050Z,38.80
2022-12-17T20:41:21.111Z,40.50
2022-12-17T20:43:49.559Z,36.70
2022-12-17T20:46:19.732Z,40.33
2022-12-17T20:48:47.847Z,39.50
2022-12-17T20:51:17.253Z,39.37
2022-12-17T20:53:45.786Z,30.50
2022-12-17T20:56:16.076Z,37.30
2022-12-17T20:58:44.510Z,36.63
2022-12-17T21:01:14.201Z,34.67
2022-12-17T21:03:43.369Z,39.93
2022-12-17T21:06:14.687Z,41.70
2022-12-17T21:08:49.368Z,38.80
2022-12-17T21:11:17.866Z,46.67
2022-12-17T21:13:46.102Z,50.50
2022-12-17T21:16:16.400Z,43.73
2022-12-17T21:18:45.670Z,49.93
2022-12-17T21:21:16.846Z,50.13
2022-12-17T21:23:45.174Z,61.47
2022-12-17T21:26:14.878Z,54.70
2022-12-17T21:28:45.195Z,54.20
2022-12-17T21:31:17.805Z,51.07
2022-12-17T21:33:47.640Z,52.17
2022-12-17T21:36:16.916Z,50.83
2022-12-17T21:38:44.545Z,56.33
2022-12-17T21:41:13.968Z,58.27
2022-12-17T21:43:42.348Z,61.97
2022-12-17T21:46:11.539Z,56.23
2022-12-17T21:48:42.230Z,56.97
2022-12-17T21:51:13.344Z,59.83
2022-12-17T21:53:43.720Z,54.40
2022-12-17T21:56:13.025Z,55.27
2022-12-17T21:58:42.224Z,60.37
2022-12-17T22:01:18.373Z,55.77
2022-12-17T22:03:47.695Z,49.30
2022-12-17T22:06:30.691Z,56.37
2022-12-17T22:09:14.743Z,51.33
2022-12-17T22:11:45.697Z,49.27
2022-12-17T22:14:17.207Z,59.77
2022-12-17T22:16:49.771Z,60.20
2022-12-17T22:19:20.895Z,58.27
2022-12-17T22:21:55.210Z,54.37
2022-12-17T22:24:25.734Z,54.33
2022-12-17T22:26:59.477Z,59.37
2022-12-17T22:29:45.413Z,45.73
2022-12-17T22:32:30.877Z,48.37
2022-12-17T22:36:14.887Z,52.27
2022-12-17T22:40:37.908Z,52.33
2022-12-17T22:44:36.240Z,49.43
2022-12-17T22:44:43.836Z,46.53
2022-12-17T22:46:19.271Z,52.90
2022-12-17T22:48:47.319Z,52.77
2022-12-17T22:51:27.272Z,43.63
2022-12-17T22:54:03.124Z,48.00
2022-12-17T22:57:02.251Z,42.50
2022-12-17T22:59:19.895Z,40.77
2022-12-17T23:01:47.645Z,35.97
2022-12-17T23:04:16.699Z,39.00
2022-12-17T23:06:45.787Z,44.57
2022-12-17T23:09:18.957Z,37.63
2022-12-17T23:11:47.458Z,32.13
2022-12-17T23:14:15.272Z,36.13
2022-12-17T23:16:43.682Z,44.20
2022-12-17T23:19:11.406Z,44.60
2022-12-17T23:21:39.255Z,36.90
2022-12-17T23:24:07.738Z,47.10
2022-12-17T23:26:38.236Z,55.63
2022-12-17T23:29:08.713Z,42.53
2022-12-17T23:31:38.610Z,43.43
2022-12-17T23:34:06.805Z,43.50
2022-12-17T23:36:34.935Z,41.20
2022-12-17T23:39:02.869Z,41.70
2022-12-17T23:41:31.521Z,42.93
2022-12-17T23:44:00.986Z,39.83
2022-12-17T23:46:30.133Z,37.27
2022-12-17T23:48:57.902Z,58.50
2022-12-17T23:51:26.853Z,51.00
2022-12-17T23:53:54.493Z,50.53
2022-12-17T23:56:23.948Z,47.90
2022-12-17T23:58:53.527Z,43.07
